Time;durP1;ratioP1;P1;durP2;ratioP2;P2;SDS_P1;SDS_P2;PMS_P1;PMS_P2;Temp;Humidity;BMP_temperature;BMP_pressure;BME280_temperature;BME280_humidity;BME280_pressure;Samples;Min_cycle;Max_cycle;Signal;HPM_P1;HPM_P2
2022/06/26 00:01:32;;;;;;;0.00;0.00;;;;;;;14.12;65.39;99069.88;7362548;19;20025;-64
2022/06/26 00:03:57;;;;;;;0.05;0.05;;;;;;;14.14;64.95;99075.88;7359824;19;20017;-63
2022/06/26 00:06:23;;;;;;;0.00;0.00;;;;;;;14.18;65.28;99065.06;7359464;19;20346;-62
2022/06/26 00:08:48;;;;;;;0.00;0.00;;;;;;;14.22;65.00;99066.56;7360353;19;20006;-64
2022/06/26 00:11:14;;;;;;;0.00;0.00;;;;;;;14.27;64.46;99056.63;7357075;19;20119;-64
2022/06/26 00:13:39;;;;;;;0.00;0.00;;;;;;;14.32;64.46;99055.47;7360394;19;20580;-64
2022/06/26 00:16:05;;;;;;;0.00;0.00;;;;;;;14.21;64.33;99032.53;7358904;19;20003;-64
2022/06/26 00:18:36;;;;;;;0.00;0.00;;;;;;;14.37;64.17;99056.03;7360044;19;20374;-63
2022/06/26 00:21:03;;;;;;;0.08;0.08;;;;;;;14.37;64.49;99037.66;7355568;19;20014;-64
2022/06/26 00:23:30;;;;;;;0.00;0.00;;;;;;;14.41;64.09;99054.91;7357737;19;20014;-61
2022/06/26 00:25:56;;;;;;;0.03;0.03;;;;;;;14.42;63.84;99040.81;7356689;19;20010;-63
2022/06/26 00:28:21;;;;;;;0.00;0.00;;;;;;;14.45;64.26;99035.38;7359005;19;20703;-63
2022/06/26 00:30:47;;;;;;;0.00;0.00;;;;;;;14.44;64.49;99037.13;7358059;19;20014;-63
2022/06/26 00:33:12;;;;;;;0.00;0.00;;;;;;;14.48;64.16;99035.19;7358213;19;20767;-64
2022/06/26 00:35:38;;;;;;;0.00;0.00;;;;;;;14.49;64.31;99031.63;7353286;19;20034;-63
2022/06/26 00:38:03;;;;;;;0.03;0.03;;;;;;;14.53;63.68;99033.94;7360290;19;20010;-62
2022/06/26 00:40:29;;;;;;;0.00;0.00;;;;;;;14.53;63.86;99025.22;7361429;19;20086;-63
2022/06/26 00:42:54;;;;;;;0.00;0.00;;;;;;;14.54;64.27;99026.91;7365007;19;20691;-61
2022/06/26 00:45:19;;;;;;;0.10;0.10;;;;;;;14.55;64.26;99028.63;7365434;19;20014;-64
2022/06/26 00:47:46;;;;;;;0.10;0.10;;;;;;;14.56;63.70;99032.91;7362919;19;20018;-64
2022/06/26 00:50:11;;;;;;;0.00;0.00;;;;;;;14.54;64.48;99019.84;7363748;19;20002;-63
2022/06/26 00:52:39;;;;;;;0.00;0.00;;;;;;;14.52;65.34;99018.28;7363409;19;20014;-64
2022/06/26 00:55:05;;;;;;;0.00;0.00;;;;;;;14.47;65.22;99018.59;7364805;19;20018;-63
2022/06/26 00:57:33;;;;;;;0.10;0.10;;;;;;;14.43;65.22;99021.47;7364714;19;20031;-63
2022/06/26 00:59:58;;;;;;;0.00;0.00;;;;;;;14.34;66.39;99011.56;7364541;19;20036;-63
2022/06/26 01:02:24;;;;;;;0.00;0.00;;;;;;;14.28;65.98;99018.91;7362699;19;20387;-63
2022/06/26 01:04:49;;;;;;;0.00;0.00;;;;;;;14.18;67.10;99007.31;7360402;19;20077;-64
2022/06/26 01:07:15;;;;;;;0.00;0.00;;;;;;;14.12;65.36;99015.59;7364881;19;20014;-63
2022/06/26 01:09:41;;;;;;;0.00;0.00;;;;;;;14.04;67.87;99015.25;7362969;19;20010;-63
2022/06/26 01:12:07;;;;;;;0.00;0.00;;;;;;;13.98;68.61;99007.75;7363834;19;20014;-63
2022/06/26 01:14:32;;;;;;;0.10;0.10;;;;;;;13.94;68.37;99014.16;7360203;19;20150;-63
2022/06/26 01:16:59;;;;;;;0.00;0.00;;;;;;;13.90;68.48;99010.03;7365259;19;20477;-62
2022/06/26 01:19:25;;;;;;;0.00;0.00;;;;;;;13.85;69.10;99006.88;7360422;19;20015;-62
2022/06/26 01:21:51;;;;;;;0.00;0.00;;;;;;;13.81;69.10;99003.59;7363130;19;20022;-63
2022/06/26 01:24:16;;;;;;;0.10;0.10;;;;;;;13.76;67.82;98996.00;7362341;19;20444;-61
2022/06/26 01:26:42;;;;;;;0.00;0.00;;;;;;;13.68;70.76;98982.50;7364131;19;20006;-63
2022/06/26 01:29:08;;;;;;;0.00;0.00;;;;;;;13.64;69.79;98977.59;7361376;19;20009;-63
2022/06/26 01:31:34;;;;;;;0.00;0.00;;;;;;;13.63;70.82;98989.81;7365019;19;20490;-63
2022/06/26 01:34:03;;;;;;;0.03;0.03;;;;;;;13.62;71.32;98988.16;7361687;19;20002;-63
2022/06/26 01:36:28;;;;;;;0.00;0.00;;;;;;;13.58;71.65;98991.06;7363821;19;20533;-63
2022/06/26 01:38:54;;;;;;;0.05;0.05;;;;;;;13.55;70.41;98992.09;7362393;19;20010;-63
2022/06/26 01:41:19;;;;;;;0.00;0.00;;;;;;;13.49;70.89;98982.00;7360327;19;19998;-62
2022/06/26 01:43:44;;;;;;;0.10;0.10;;;;;;;13.50;72.34;98981.91;7359026;19;20019;-62
2022/06/26 01:46:10;;;;;;;0.00;0.00;;;;;;;13.49;71.96;98974.13;7362625;19;20078;-62
2022/06/26 01:48:38;;;;;;;0.00;0.00;;;;;;;13.35;72.48;98947.94;7363555;19;20490;-63
2022/06/26 01:51:05;;;;;;;0.10;0.10;;;;;;;13.45;73.07;98976.09;7361147;19;20037;-62
2022/06/26 01:53:31;;;;;;;0.00;0.00;;;;;;;13.44;72.56;98973.56;7359222;19;20642;-62
2022/06/26 01:55:56;;;;;;;0.08;0.08;;;;;;;13.43;72.27;98967.50;7363576;19;20007;-63
2022/06/26 01:58:22;;;;;;;0.00;0.00;;;;;;;13.44;73.09;98984.06;7351173;19;20101;-63
2022/06/26 02:00:48;;;;;;;0.00;0.00;;;;;;;13.43;73.55;98979.72;7361737;19;20010;-63
2022/06/26 02:03:15;;;;;;;0.00;0.00;;;;;;;13.43;73.58;98980.59;7360100;19;20677;-63
2022/06/26 02:05:41;;;;;;;0.00;0.00;;;;;;;13.44;73.19;98984.06;7359069;19;20476;-64
2022/06/26 02:08:07;;;;;;;0.10;0.10;;;;;;;13.41;74.11;98974.59;7355904;19;20018;-63
2022/06/26 02:16:04;;;;;;;0.00;0.00;;;;;;;13.48;73.64;98980.28;7362069;19;20022;-62
2022/06/26 02:18:29;;;;;;;0.00;0.00;;;;;;;13.38;73.96;98963.44;7366084;19;20081;-63
2022/06/26 02:20:55;;;;;;;0.00;0.00;;;;;;;13.48;74.25;98983.78;7368493;19;20086;-63
2022/06/26 02:23:21;;;;;;;0.00;0.00;;;;;;;13.49;74.23;98984.63;7365339;19;20155;-63
2022/06/26 02:25:47;;;;;;;0.00;0.00;;;;;;;13.51;74.28;98985.34;7367926;19;20010;-63
2022/06/26 02:28:12;;;;;;;0.00;0.00;;;;;;;13.52;74.39;98984.41;7363585;19;20021;-63
2022/06/26 02:30:38;;;;;;;0.10;0.10;;;;;;;13.53;74.76;98988.72;7368872;19;20346;-63
2022/06/26 02:33:04;;;;;;;0.00;0.00;;;;;;;13.55;73.89;98986.84;7362895;19;20017;-63
2022/06/26 02:35:30;;;;;;;0.00;0.00;;;;;;;13.57;74.22;98989.38;7368228;19;20726;-63
2022/06/26 02:37:56;;;;;;;0.00;0.00;;;;;;;13.56;74.27;98983.28;7363311;19;20011;-62
2022/06/26 02:40:23;;;;;;;0.00;0.00;;;;;;;13.58;74.02;98989.28;7366433;19;20477;-63
2022/06/26 02:42:49;;;;;;;0.00;0.00;;;;;;;13.59;73.85;98982.28;7361844;19;20025;-63
2022/06/26 02:45:15;;;;;;;0.00;0.00;;;;;;;13.59;74.08;98993.59;7366746;19;20006;-63
2022/06/26 02:47:41;;;;;;;0.00;0.00;;;;;;;13.58;75.03;98989.28;7365285;19;20284;-63
2022/06/26 02:50:07;;;;;;;0.08;0.08;;;;;;;13.59;74.98;98987.53;7366957;19;20014;-63
2022/06/26 02:52:33;;;;;;;0.10;0.10;;;;;;;13.57;74.98;98982.34;7363090;19;20018;-63
2022/06/26 02:54:59;;;;;;;0.10;0.10;;;;;;;13.59;75.18;98983.13;7367790;19;24841;-63
2022/06/26 02:57:24;;;;;;;0.10;0.10;;;;;;;13.59;75.48;98990.97;7364110;19;20074;-63
2022/06/26 02:59:50;;;;;;;0.00;0.00;;;;;;;13.59;75.44;98992.75;7365277;19;21409;-63
2022/06/26 03:02:15;;;;;;;0.00;0.00;;;;;;;13.62;74.69;98997.81;7366754;19;20010;-63
2022/06/26 03:04:42;;;;;;;0.00;0.00;;;;;;;13.63;75.55;99000.31;7357749;19;20002;-63
2022/06/26 03:07:08;;;;;;;0.00;0.00;;;;;;;13.61;75.27;98996.97;7366687;19;20465;-64
2022/06/26 03:09:33;;;;;;;0.00;0.00;;;;;;;13.63;75.49;98997.69;7368804;19;20026;-64
2022/06/26 03:11:58;;;;;;;0.00;0.00;;;;;;;13.66;74.53;99010.63;7369299;19;20010;-63
2022/06/26 03:14:24;;;;;;;0.00;0.00;;;;;;;13.66;75.09;99005.38;7365733;19;20081;-63
2022/06/26 03:16:49;;;;;;;0.03;0.03;;;;;;;13.66;75.84;99005.38;7367529;19;20007;-62
2022/06/26 03:19:15;;;;;;;0.00;0.00;;;;;;;13.66;75.90;99010.63;7367251;19;20354;-63
2022/06/26 03:21:40;;;;;;;0.00;0.00;;;;;;;13.65;75.89;99008.94;7358119;19;20002;-63
2022/06/26 03:24:06;;;;;;;0.05;0.05;;;;;;;13.64;76.39;99011.69;7365899;19;20378;-62
2022/06/26 03:26:36;;;;;;;0.00;0.00;;;;;;;13.64;76.04;99003.81;7363918;19;20066;-63
2022/06/26 03:29:04;;;;;;;0.00;0.00;;;;;;;13.63;76.33;98997.69;7368087;19;20088;-64
2022/06/26 03:31:29;;;;;;;0.00;0.00;;;;;;;13.61;76.41;99007.44;7365845;19;20015;-64
2022/06/26 03:33:55;;;;;;;0.00;0.00;;;;;;;13.61;76.47;99011.84;7366510;19;20011;-64
2022/06/26 03:36:22;;;;;;;0.00;0.00;;;;;;;13.54;76.29;99006.16;7366339;19;20024;-64
2022/06/26 03:38:48;;;;;;;0.08;0.08;;;;;;;13.59;76.46;99025.06;7367519;19;20010;-64
2022/06/26 03:41:14;;;;;;;0.00;0.00;;;;;;;13.50;76.54;99010.75;7367744;19;20021;-64
2022/06/26 03:43:39;;;;;;;0.00;0.00;;;;;;;13.51;76.66;99014.19;7365712;19;20086;-63
2022/06/26 03:46:05;;;;;;;0.00;0.00;;;;;;;13.54;76.64;99015.81;7366441;19;20017;-64
2022/06/26 03:48:30;;;;;;;0.00;0.00;;;;;;;13.55;77.00;99018.31;7364219;19;20353;-64
2022/06/26 03:50:57;;;;;;;0.00;0.00;;;;;;;13.55;77.24;99009.63;7368404;19;20037;-63
2022/06/26 03:53:23;;;;;;;0.00;0.00;;;;;;;13.46;76.62;98998.75;7368582;19;20909;-64
2022/06/26 03:55:49;;;;;;;0.00;0.00;;;;;;;13.55;77.55;99028.81;7367942;19;21589;-64
2022/06/26 03:58:14;;;;;;;0.00;0.00;;;;;;;13.54;77.40;99027.13;7363442;19;20009;-64
2022/06/26 04:00:39;;;;;;;0.00;0.00;;;;;;;13.55;77.01;99023.56;7368020;19;19999;-63
2022/06/26 04:03:06;;;;;;;0.00;0.00;;;;;;;13.52;77.31;99015.88;7366333;19;20671;-63
2022/06/26 04:05:32;;;;;;;0.10;0.10;;;;;;;13.41;77.74;98994.72;7366336;19;20044;-64
2022/06/26 04:07:58;;;;;;;0.00;0.00;;;;;;;13.56;77.49;99030.50;7364064;19;20029;-63
2022/06/26 04:10:24;;;;;;;0.00;0.00;;;;;;;13.55;77.70;99023.56;7367664;19;20033;-63
2022/06/26 04:12:49;;;;;;;0.10;0.10;;;;;;;13.54;77.80;99021.91;7367209;19;20094;-62
2022/06/26 04:15:15;;;;;;;0.00;0.00;;;;;;;13.54;78.08;99027.13;7367256;19;21416;-64
2022/06/26 04:17:41;;;;;;;0.00;0.00;;;;;;;13.55;78.35;99031.44;7365831;19;20874;-64
2022/06/26 04:20:07;;;;;;;0.00;0.00;;;;;;;13.54;78.31;99027.13;7364763;19;24640;-63
2022/06/26 04:22:32;;;;;;;0.00;0.00;;;;;;;13.52;78.05;99029.00;7365505;19;20744;-64
2022/06/26 04:24:58;;;;;;;0.00;0.00;;;;;;;13.57;78.15;99032.19;7364307;19;20006;-63
2022/06/26 04:27:23;;;;;;;0.00;0.00;;;;;;;13.56;77.92;99040.16;7366937;19;20007;-63
2022/06/26 04:29:48;;;;;;;0.00;0.00;;;;;;;13.57;78.08;99044.44;7365075;19;20997;-64
2022/06/26 04:32:14;;;;;;;0.00;0.00;;;;;;;13.49;78.10;99039.69;7366257;19;20074;-64
2022/06/26 04:34:39;;;;;;;0.10;0.10;;;;;;;13.57;78.32;99053.16;7364923;19;20021;-64
2022/06/26 04:37:05;;;;;;;0.00;0.00;;;;;;;13.56;77.79;99046.22;7366127;19;20014;-63
2022/06/26 04:39:30;;;;;;;0.00;0.00;;;;;;;13.45;77.31;99032.94;7359681;19;20011;-64
2022/06/26 04:41:56;;;;;;;0.00;0.00;;;;;;;13.52;77.61;99044.72;7366005;19;20634;-64
2022/06/26 04:44:22;;;;;;;0.00;0.00;;;;;;;13.54;77.35;99048.13;7363106;19;20022;-64
2022/06/26 04:46:48;;;;;;;0.00;0.00;;;;;;;13.54;77.21;99053.38;7364759;19;20027;-64
2022/06/26 04:49:13;;;;;;;0.00;0.00;;;;;;;13.46;77.56;99039.88;7366428;19;20020;-63
2022/06/26 04:51:39;;;;;;;0.00;0.00;;;;;;;13.51;78.04;99053.53;7364470;19;20010;-64
2022/06/26 04:54:08;;;;;;;0.00;0.00;;;;;;;13.49;77.89;99050.19;7366271;19;20014;-64
2022/06/26 04:56:35;;;;;;;0.00;0.00;;;;;;;13.52;77.74;99054.38;7364179;19;20118;-64
2022/06/26 04:59:01;;;;;;;0.00;0.00;;;;;;;13.49;78.61;99052.81;7365655;19;20023;-64
2022/06/26 05:01:27;;;;;;;0.00;0.00;;;;;;;13.51;77.99;99050.91;7365761;19;20017;-64
2022/06/26 05:03:53;;;;;;;0.00;0.00;;;;;;;13.51;77.91;99037.81;7362976;19;20656;-62
2022/06/26 05:06:19;;;;;;;0.00;0.00;;;;;;;13.51;77.38;99053.53;7363975;19;20081;-63
2022/06/26 05:08:44;;;;;;;0.00;0.00;;;;;;;13.50;77.68;99057.09;7362834;19;20083;-64
2022/06/26 05:11:10;;;;;;;0.00;0.00;;;;;;;13.48;78.02;99049.34;7363750;19;20014;-64
2022/06/26 05:13:35;;;;;;;0.00;0.00;;;;;;;13.46;77.93;99056.44;7364643;19;20010;-64
2022/06/26 05:16:01;;;;;;;0.00;0.00;;;;;;;13.46;77.76;99045.09;7364566;19;20465;-64
2022/06/26 05:18:27;;;;;;;0.08;0.08;;;;;;;13.45;78.41;99054.75;7362192;19;20354;-64
2022/06/26 05:20:53;;;;;;;0.00;0.00;;;;;;;13.45;78.43;99051.31;7366494;19;20007;-65
2022/06/26 05:23:18;;;;;;;0.00;0.00;;;;;;;13.45;77.54;99053.91;7364480;19;20017;-64
2022/06/26 05:25:45;;;;;;;0.00;0.00;;;;;;;13.43;78.12;99051.41;7363709;19;20017;-64
2022/06/26 05:28:11;;;;;;;0.00;0.00;;;;;;;13.42;78.35;99054.09;7363226;19;20026;-64
2022/06/26 05:30:36;;;;;;;0.00;0.00;;;;;;;13.41;78.76;99068.16;7363484;19;20477;-64
2022/06/26 05:33:03;;;;;;;0.00;0.00;;;;;;;13.38;78.59;99058.69;7364860;19;20025;-65
2022/06/26 05:35:29;;;;;;;0.00;0.00;;;;;;;13.42;77.93;99065.41;7362052;19;20018;-64
2022/06/26 05:37:55;;;;;;;0.00;0.00;;;;;;;13.43;77.39;99072.38;7363805;19;20029;-64
2022/06/26 05:40:21;;;;;;;0.00;0.00;;;;;;;13.41;77.62;99089.13;7364008;19;20006;-65
2022/06/26 05:42:46;;;;;;;0.00;0.00;;;;;;;13.40;78.29;99087.44;7365185;19;20015;-65
2022/06/26 05:45:11;;;;;;;0.00;0.00;;;;;;;13.39;78.18;99076.13;7362470;19;20036;-65
2022/06/26 05:47:37;;;;;;;0.00;0.00;;;;;;;13.41;78.14;99094.38;7361867;19;20014;-65
2022/06/26 05:50:03;;;;;;;0.10;0.10;;;;;;;13.36;78.05;99086.78;7363450;19;20027;-65
2022/06/26 05:52:29;;;;;;;0.00;0.00;;;;;;;13.39;78.39;99101.50;7361554;19;20027;-64
2022/06/26 05:54:54;;;;;;;0.00;0.00;;;;;;;13.34;78.19;99093.06;7363718;19;20666;-64
2022/06/26 05:57:20;;;;;;;0.05;0.05;;;;;;;13.41;78.14;99104.84;7362535;19;20081;-65
2022/06/26 05:59:46;;;;;;;0.00;0.00;;;;;;;13.41;78.36;99110.09;7359715;19;20472;-64
2022/06/26 06:02:12;;;;;;;0.00;0.00;;;;;;;13.42;77.45;99111.78;7363640;19;20070;-64
2022/06/26 06:04:37;;;;;;;0.08;0.08;;;;;;;13.42;78.09;99111.78;7362413;19;20466;-64
2022/06/26 06:07:04;;;;;;;0.00;0.00;;;;;;;13.41;78.40;99125.84;7361242;19;20011;-64
2022/06/26 06:09:30;;;;;;;0.00;0.00;;;;;;;13.43;77.60;99132.69;7365154;19;20895;-64
2022/06/26 06:11:55;;;;;;;0.00;0.00;;;;;;;13.42;78.03;99128.34;7361348;19;20010;-64
2022/06/26 06:14:21;;;;;;;0.00;0.00;;;;;;;13.41;78.23;99131.91;7362012;19;20013;-65
2022/06/26 06:16:46;;;;;;;0.00;0.00;;;;;;;13.41;78.51;99125.84;7360744;19;20018;-65
2022/06/26 06:19:12;;;;;;;0.00;0.00;;;;;;;13.41;78.14;99134.53;7361240;19;20006;-64
2022/06/26 06:21:37;;;;;;;0.00;0.00;;;;;;;13.45;77.88;99132.59;7360449;19;20022;-65
2022/06/26 06:24:03;;;;;;;0.00;0.00;;;;;;;13.47;78.23;99135.94;7362381;19;20010;-65
2022/06/26 06:26:28;;;;;;;0.00;0.00;;;;;;;13.48;78.67;99133.25;7362141;19;20539;-63
2022/06/26 06:28:53;;;;;;;0.10;0.10;;;;;;;13.52;78.17;99139.13;7361407;19;20002;-64
2022/06/26 06:31:19;;;;;;;0.00;0.00;;;;;;;13.55;78.59;99138.97;7362597;19;20022;-65
2022/06/26 06:33:45;;;;;;;0.00;0.00;;;;;;;13.55;78.22;99138.97;7360269;19;20014;-65
2022/06/26 06:36:10;;;;;;;0.10;0.10;;;;;;;13.64;78.09;99158.56;7361917;19;20010;-65
2022/06/26 06:38:36;;;;;;;0.00;0.00;;;;;;;13.67;78.22;99168.84;7361181;19;20411;-65
2022/06/26 06:41:01;;;;;;;0.10;0.10;;;;;;;13.72;78.01;99157.16;7361666;19;20645;-64
2022/06/26 06:43:27;;;;;;;0.10;0.10;;;;;;;13.76;78.06;99153.41;7360125;19;20572;-64
2022/06/26 06:45:52;;;;;;;0.00;0.00;;;;;;;13.81;78.30;99157.53;7361771;19;20014;-64
2022/06/26 06:48:18;;;;;;;0.00;0.00;;;;;;;13.85;78.21;99166.91;7360088;19;20007;-64
2022/06/26 06:50:43;;;;;;;0.00;0.00;;;;;;;13.90;77.96;99165.69;7359935;19;20023;-65
2022/06/26 06:53:09;;;;;;;0.00;0.00;;;;;;;13.95;77.91;99168.88;7362269;19;20841;-63
2022/06/26 06:55:34;;;;;;;0.00;0.00;;;;;;;13.99;78.43;99180.06;7359922;19;20018;-65
2022/06/26 06:58:00;;;;;;;0.00;0.00;;;;;;;13.95;77.73;99161.00;7361350;19;20077;-65
2022/06/26 07:00:26;;;;;;;0.00;0.00;;;;;;;14.11;77.45;99176.66;7362817;19;20354;-66
2022/06/26 07:02:51;;;;;;;0.10;0.10;;;;;;;14.14;77.47;99181.75;7365613;19;20010;-65
2022/06/26 07:05:19;;;;;;;0.00;0.00;;;;;;;14.18;77.82;99191.09;7365704;19;20026;-66
2022/06/26 07:07:45;;;;;;;0.10;0.10;;;;;;;14.23;77.60;99189.03;7364932;19;20018;-65
2022/06/26 07:10:10;;;;;;;0.00;0.00;;;;;;;14.27;77.46;99190.53;7368456;19;20022;-66
2022/06/26 07:12:37;;;;;;;0.00;0.00;;;;;;;14.25;77.34;99192.41;7366361;19;20010;-65
2022/06/26 07:15:03;;;;;;;0.00;0.00;;;;;;;14.31;77.40;99192.97;7365295;19;20022;-63
2022/06/26 07:17:29;;;;;;;0.00;0.00;;;;;;;14.27;77.34;99190.53;7366813;19;20468;-65
2022/06/26 07:19:54;;;;;;;0.10;0.10;;;;;;;14.35;77.71;99202.34;7365640;19;20010;-65
2022/06/26 07:22:19;;;;;;;0.00;0.00;;;;;;;14.41;77.13;99202.81;7367484;19;20013;-62
2022/06/26 07:24:45;;;;;;;0.03;0.03;;;;;;;14.45;77.48;99216.59;7366215;19;20042;-64
2022/06/26 07:27:10;;;;;;;0.10;0.10;;;;;;;14.39;77.29;99195.94;7367202;19;20094;-64
2022/06/26 07:29:36;;;;;;;0.08;0.08;;;;;;;14.54;76.93;99227.38;7364264;19;20098;-62
2022/06/26 07:32:01;;;;;;;0.00;0.00;;;;;;;14.60;77.04;99234.06;7369028;19;20022;-65
2022/06/26 07:34:27;;;;;;;0.00;0.00;;;;;;;14.65;77.01;99242.50;7364055;19;20014;-63
2022/06/26 07:36:52;;;;;;;0.00;0.00;;;;;;;14.63;76.94;99228.59;7364644;19;20548;-65
2022/06/26 07:39:21;;;;;;;0.00;0.00;;;;;;;14.77;76.63;99252.22;7366184;19;20007;-64
2022/06/26 07:41:48;;;;;;;0.10;0.10;;;;;;;14.79;76.22;99239.81;7357950;19;20454;-64
2022/06/26 07:44:14;;;;;;;0.00;0.00;;;;;;;14.82;76.64;99248.47;7359919;19;20040;-64
2022/06/26 07:46:39;;;;;;;0.00;0.00;;;;;;;14.87;76.12;99246.38;7362459;19;20018;-65
2022/06/26 07:49:06;;;;;;;0.10;0.10;;;;;;;14.90;76.49;99264.56;7362195;19;20015;-64
2022/06/26 07:51:32;;;;;;;0.00;0.00;;;;;;;14.93;75.97;99273.13;7361980;19;20031;-65
2022/06/26 07:53:57;;;;;;;0.00;0.00;;;;;;;14.95;75.57;99267.75;7362435;19;20074;-64
2022/06/26 07:56:25;;;;;;;0.00;0.00;;;;;;;14.99;75.44;99272.72;7361639;19;20751;-63
2022/06/26 07:58:54;;;;;;;0.10;0.10;;;;;;;15.03;75.86;99273.38;7363782;19;20022;-63
2022/06/26 08:01:19;;;;;;;0.10;0.10;;;;;;;15.03;75.78;99276.00;7362896;19;20024;-63
2022/06/26 08:03:45;;;;;;;0.00;0.00;;;;;;;15.05;75.46;99287.25;7362575;19;20007;-65
2022/06/26 08:06:10;;;;;;;0.10;0.10;;;;;;;15.03;75.32;99278.63;7359282;19;20110;-65
2022/06/26 08:08:37;;;;;;;0.00;0.00;;;;;;;15.08;75.20;99280.97;7364599;19;20017;-65
2022/06/26 08:11:03;;;;;;;0.10;0.10;;;;;;;15.11;75.03;99292.16;7361488;19;20018;-65
2022/06/26 08:13:28;;;;;;;0.00;0.00;;;;;;;15.12;75.25;99293.00;7359690;19;20732;-63
2022/06/26 08:15:53;;;;;;;0.00;0.00;;;;;;;15.14;75.13;99302.44;7357728;19;20014;-64
2022/06/26 08:18:19;;;;;;;0.03;0.03;;;;;;;15.20;75.24;99307.31;7357123;19;20090;-65
2022/06/26 08:20:44;;;;;;;0.00;0.00;;;;;;;15.23;74.99;99293.97;7356373;19;20374;-65
2022/06/26 08:23:10;;;;;;;0.00;0.00;;;;;;;15.25;74.95;99293.88;7359828;19;20085;-65
2022/06/26 08:25:35;;;;;;;0.00;0.00;;;;;;;15.27;74.80;99298.09;7361909;19;20010;-64
2022/06/26 08:28:01;;;;;;;0.00;0.00;;;;;;;15.30;74.72;99303.16;7362425;19;20131;-66
2022/06/26 08:30:26;;;;;;;0.10;0.10;;;;;;;15.19;75.16;99274.06;7363160;19;20019;-65
2022/06/26 08:32:56;;;;;;;0.00;0.00;;;;;;;15.37;75.43;99297.53;7364338;19;20769;-65
2022/06/26 08:35:22;;;;;;;0.00;0.00;;;;;;;15.52;75.99;99293.88;7363883;19;20034;-65
2022/06/26 08:37:47;;;;;;;0.03;0.03;;;;;;;15.59;75.97;99282.00;7364436;19;22497;-66
2022/06/26 08:40:13;;;;;;;0.00;0.00;;;;;;;15.83;75.82;99305.91;7364360;19;20021;-64
2022/06/26 08:42:41;;;;;;;0.00;0.00;;;;;;;16.01;75.16;99298.53;7362424;19;20029;-65
2022/06/26 08:45:08;;;;;;;0.00;0.00;;;;;;;16.15;75.34;99316.88;7363949;19;20022;-63
2022/06/26 08:47:37;;;;;;;0.00;0.00;;;;;;;16.30;74.71;99283.41;7361682;19;20030;-64
2022/06/26 08:50:03;;;;;;;0.00;0.00;;;;;;;16.35;74.11;99297.94;7364742;19;20483;-65
2022/06/26 08:52:30;;;;;;;0.05;0.05;;;;;;;16.50;73.80;99292.56;7363893;19;20011;-63
2022/06/26 08:54:56;;;;;;;0.03;0.03;;;;;;;16.54;72.66;99297.50;7363371;19;20036;-64
2022/06/26 08:57:23;;;;;;;0.00;0.00;;;;;;;16.54;72.00;99296.66;7364059;19;20014;-66
2022/06/26 08:59:48;;;;;;;0.10;0.10;;;;;;;16.54;72.57;99292.25;7364535;19;20014;-67
2022/06/26 09:02:13;;;;;;;0.00;0.00;;;;;;;16.55;72.21;99303.63;7362310;19;20030;-65
2022/06/26 09:04:39;;;;;;;0.10;0.10;;;;;;;16.58;72.24;99303.41;7363187;19;20019;-63
2022/06/26 09:07:08;;;;;;;0.10;0.10;;;;;;;16.67;71.68;99301.91;7361707;19;20014;-63
2022/06/26 09:09:39;;;;;;;0.00;0.00;;;;;;;16.66;71.87;99308.13;7363884;19;20556;-64
2022/06/26 09:12:05;;;;;;;0.10;0.10;;;;;;;16.37;72.02;99274.09;7364879;19;20093;-66
2022/06/26 09:14:31;;;;;;;0.05;0.05;;;;;;;16.70;71.51;99320.16;7364259;19;20426;-65
2022/06/26 09:16:57;;;;;;;0.10;0.10;;;;;;;16.74;71.91;99335.69;7362666;19;20007;-65
2022/06/26 09:19:26;;;;;;;0.00;0.00;;;;;;;16.77;71.95;99319.63;7360550;19;20018;-65
2022/06/26 09:21:53;;;;;;;0.00;0.00;;;;;;;16.80;71.53;99324.72;7363546;19;20471;-65
2022/06/26 09:24:21;;;;;;;0.00;0.00;;;;;;;16.89;71.19;99338.22;7362333;19;20045;-63
2022/06/26 09:27:10;;;;;;;0.10;0.10;;;;;;;16.89;71.62;99307.41;7363673;19;20021;-65
2022/06/26 09:29:36;;;;;;;0.00;0.00;;;;;;;16.94;70.74;99330.81;7362585;19;20011;-65
2022/06/26 09:32:10;;;;;;;0.00;0.00;;;;;;;17.06;71.09;99314.94;7365479;19;20987;-65
2022/06/26 09:34:35;;;;;;;0.03;0.03;;;;;;;17.09;70.45;99321.81;7365177;19;20007;-65
2022/06/26 09:37:04;;;;;;;0.10;0.10;;;;;;;17.21;70.82;99330.63;7361651;19;22226;-64
2022/06/26 09:39:30;;;;;;;0.00;0.00;;;;;;;17.29;71.29;99329.13;7357912;19;20015;-65
2022/06/26 09:41:56;;;;;;;0.10;0.10;;;;;;;17.40;70.20;99338.06;7363756;19;20101;-66
2022/06/26 09:44:23;;;;;;;0.10;0.10;;;;;;;17.49;70.57;99332.13;7363830;19;21284;-65
2022/06/26 09:46:49;;;;;;;0.00;0.00;;;;;;;17.57;69.63;99348.22;7363643;19;20469;-65
2022/06/26 09:49:16;;;;;;;0.10;0.10;;;;;;;17.70;70.52;99346.38;7361120;19;20034;-64
2022/06/26 09:51:43;;;;;;;0.10;0.10;;;;;;;17.77;69.87;99342.34;7362766;19;20021;-64
2022/06/26 09:54:09;;;;;;;0.00;0.00;;;;;;;17.76;68.65;99345.13;7363289;19;20018;-65
2022/06/26 09:56:35;;;;;;;0.00;0.00;;;;;;;17.83;67.84;99338.41;7359892;19;20035;-63
2022/06/26 09:59:00;;;;;;;0.00;0.00;;;;;;;17.82;67.38;99339.38;7361846;19;20709;-63
2022/06/26 10:07:05;;;;;;;0.00;0.00;;;;;;;17.91;67.17;99353.69;7360947;19;20022;-63
2022/06/26 10:09:34;;;;;;;0.10;0.10;;;;;;;17.92;67.59;99366.78;7359885;19;20015;-65
2022/06/26 10:12:03;;;;;;;0.00;0.00;;;;;;;17.93;67.31;99351.78;7358491;19;20021;-64
2022/06/26 10:14:33;;;;;;;0.00;0.00;;;;;;;17.92;67.17;99352.75;7356315;19;20023;-64
2022/06/26 10:17:07;;;;;;;0.00;0.00;;;;;;;17.98;67.63;99349.63;7360993;19;20010;-63
2022/06/26 10:19:50;;;;;;;0.10;0.10;;;;;;;18.02;67.64;99353.72;7359178;19;20679;-64
2022/06/26 10:22:15;;;;;;;0.05;0.05;;;;;;;17.92;68.46;99356.22;7358942;19;20354;-64
2022/06/26 10:25:08;;;;;;;0.10;0.10;;;;;;;17.97;68.65;99364.63;7360319;19;20021;-65
2022/06/26 10:27:35;;;;;;;0.00;0.00;;;;;;;17.93;67.87;99352.63;7250837;19;2004401;-64
2022/06/26 10:30:13;;;;;;;0.00;0.00;;;;;;;18.00;68.08;99363.59;7359778;19;20609;-63
2022/06/26 10:32:39;;;;;;;0.10;0.10;;;;;;;18.08;68.91;99361.19;7358056;19;20002;-65
2022/06/26 10:35:06;;;;;;;0.10;0.10;;;;;;;18.25;69.13;99368.72;7358466;19;20572;-65
2022/06/26 10:37:41;;;;;;;0.00;0.00;;;;;;;18.57;69.02;99365.41;7357711;19;20090;-64
2022/06/26 10:40:14;;;;;;;0.10;0.10;;;;;;;18.84;67.89;99370.38;7361086;19;20038;-64
2022/06/26 10:42:53;;;;;;;0.00;0.00;;;;;;;18.88;67.52;99383.25;7361298;19;20003;-64
2022/06/26 10:45:31;;;;;;;0.00;0.00;;;;;;;18.83;66.72;99380.13;7366041;19;20030;-65
2022/06/26 10:48:04;;;;;;;0.10;0.10;;;;;;;18.65;66.66;99381.50;7366666;19;20011;-65
2022/06/26 10:50:35;;;;;;;0.10;0.10;;;;;;;18.47;67.51;99380.28;7365087;19;20022;-64
2022/06/26 10:53:26;;;;;;;0.00;0.00;;;;;;;18.35;67.96;99382.91;7367447;19;20525;-64
2022/06/26 10:55:54;;;;;;;0.05;0.05;;;;;;;18.22;68.70;99379.50;7264684;19;2004601;-65
2022/06/26 10:58:27;;;;;;;0.10;0.10;;;;;;;18.22;68.49;99368.09;7366493;19;20025;-63
2022/06/26 11:00:56;;;;;;;0.10;0.10;;;;;;;18.22;68.47;99376.84;7363910;19;20021;-64
2022/06/26 11:03:22;;;;;;;0.08;0.08;;;;;;;18.16;67.73;99364.13;7366858;19;20030;-64
2022/06/26 11:06:02;;;;;;;0.10;0.10;;;;;;;18.44;68.05;99380.50;7364498;19;20006;-64
2022/06/26 11:08:42;;;;;;;0.03;0.03;;;;;;;18.61;67.87;99383.56;7364884;19;20042;-65
2022/06/26 11:11:09;;;;;;;0.10;0.10;;;;;;;18.72;66.67;99366.91;7364882;19;20010;-65
2022/06/26 11:13:36;;;;;;;;;;;;;;;18.93;67.33;99383.72;7362119;19;20030;-64
2022/06/26 11:16:03;;;;;;;0.03;0.03;;;;;;;18.93;65.48;99399.59;7365987;19;20625;-64
2022/06/26 11:18:32;;;;;;;;;;;;;;;19.02;65.38;99383.97;7365987;19;20359;-64
2022/06/26 11:20:57;;;;;;;0.00;0.00;;;;;;;18.96;63.65;99379.16;7350837;19;19936;-65
2022/06/26 11:23:25;;;;;;;0.10;0.10;;;;;;;18.98;63.12;99393.13;7362199;19;20556;-64
2022/06/26 11:26:11;;;;;;;0.00;0.00;;;;;;;19.07;63.86;99392.41;7366980;19;20567;-65
2022/06/26 11:28:41;;;;;;;0.00;0.00;;;;;;;19.01;63.48;99377.84;7365229;19;20010;-64
2022/06/26 11:31:09;;;;;;;0.08;0.08;;;;;;;19.01;63.80;99366.41;7366642;19;20790;-63
2022/06/26 11:33:37;;;;;;;0.10;0.10;;;;;;;19.19;61.76;99372.88;7362484;19;20086;-63
2022/06/26 11:36:07;;;;;;;0.00;0.00;;;;;;;19.33;62.93;99399.09;7366876;19;20006;-63
2022/06/26 11:38:34;;;;;;;0.10;0.10;;;;;;;19.37;62.30;99389.97;7365737;19;20423;-63
2022/06/26 11:41:02;;;;;;;0.00;0.00;;;;;;;19.43;62.85;99397.41;7367454;19;20772;-62
2022/06/26 11:43:28;;;;;;;0.10;0.10;;;;;;;19.43;66.04;99415.94;7367352;19;20010;-60